Time;durP1;ratioP1;P1;durP2;ratioP2;P2;SDS_P1;SDS_P2;PMS_P1;PMS_P2;Temp;Humidity;BMP_temperature;BMP_pressure;BME280_temperature;BME280_humidity;BME280_pressure;Samples;Min_cycle;Max_cycle;Signal;HPM_P1;HPM_P2
2022/06/19 00:01:17;;;;;;;19.93;5.63;;;20.90;59.80;;;;;;5012132;28;20241;-92
2022/06/19 00:03:48;;;;;;;19.67;5.17;;;20.90;59.90;;;;;;5010063;28;20209;-94
2022/06/19 00:06:16;;;;;;;13.13;4.13;;;20.90;59.70;;;;;;5009453;28;20201;-95
2022/06/19 00:08:45;;;;;;;19.43;4.27;;;20.90;59.50;;;;;;5011109;28;20264;-94
2022/06/19 00:11:14;;;;;;;13.47;3.40;;;20.90;59.30;;;;;;5011711;28;20205;-95
2022/06/19 00:13:42;;;;;;;17.07;4.03;;;20.90;59.10;;;;;;5012678;28;20209;-94
2022/06/19 00:16:14;;;;;;;17.20;4.57;;;20.90;59.00;;;;;;5012253;28;20320;-95
2022/06/19 00:18:42;;;;;;;17.10;4.43;;;20.80;59.00;;;;;;5011727;28;20209;-96
2022/06/19 00:21:12;;;;;;;11.50;3.57;;;20.80;58.80;;;;;;5010217;28;20237;-96
2022/06/19 00:23:39;;;;;;;16.37;4.27;;;20.80;58.50;;;;;;5011867;28;20689;-91
2022/06/19 00:26:10;;;;;;;22.83;5.13;;;20.80;57.90;;;;;;5010389;28;20259;-95
2022/06/19 00:28:44;;;;;;;16.37;3.37;;;20.70;57.30;;;;;;5016498;28;20216;-96
2022/06/19 00:31:13;;;;;;;22.40;5.17;;;20.70;57.30;;;;;;5011809;28;20212;-96
2022/06/19 00:33:41;;;;;;;13.67;4.03;;;20.60;56.70;;;;;;5010083;28;20209;-95
2022/06/19 00:36:10;;;;;;;20.47;5.47;;;20.60;56.90;;;;;;5013868;28;20205;-96
2022/06/19 00:38:39;;;;;;;23.07;4.47;;;20.60;56.90;;;;;;5014582;28;20231;-95
2022/06/19 00:41:08;;;;;;;17.23;2.83;;;20.50;56.20;;;;;;5018313;28;20207;-96
2022/06/19 00:43:53;;;;;;;22.53;4.13;;;20.50;56.10;;;;;;5018300;28;20248;-92
2022/06/19 00:46:48;;;;;;;18.27;4.17;;;20.50;56.20;;;;;;5006387;28;20222;-94
2022/06/19 00:49:24;;;;;;;21.57;4.33;;;20.50;56.10;;;;;;5006396;28;20207;-94
2022/06/19 00:52:02;;;;;;;22.23;4.80;;;20.40;56.60;;;;;;5001090;28;20212;-96
2022/06/19 00:54:35;;;;;;;8.27;1.93;;;20.30;55.80;;;;;;5012799;28;20223;-95
2022/06/19 00:57:08;;;;;;;15.23;3.80;;;20.30;55.70;;;;;;5032763;28;20620;-95
2022/06/19 00:59:48;;;;;;;16.70;3.83;;;20.30;55.70;;;;;;5007313;28;20259;-95
2022/06/19 01:02:22;;;;;;;16.03;3.07;;;20.20;55.00;;;;;;5013677;28;20232;-95
2022/06/19 01:05:00;;;;;;;23.43;6.30;;;20.20;54.50;;;;;;5020487;28;20189;-95
2022/06/19 01:07:27;;;;;;;17.57;4.20;;;20.20;54.50;;;;;;5013623;28;20212;-94
2022/06/19 01:09:55;;;;;;;14.67;3.33;;;20.10;54.90;;;;;;5016599;28;20252;-95
2022/06/19 01:12:26;;;;;;;9.80;2.90;;;20.10;54.80;;;;;;5020130;28;20268;-96
2022/06/19 01:15:02;;;;;;;12.47;3.50;;;20.10;54.90;;;;;;5024985;28;20605;-95
2022/06/19 01:17:33;;;;;;;13.23;4.10;;;20.00;54.60;;;;;;5020825;28;20217;-93
2022/06/19 01:20:01;;;;;;;11.40;3.07;;;20.00;54.30;;;;;;5014354;28;20216;-95
2022/06/19 01:22:37;;;;;;;15.43;3.90;;;20.00;54.60;;;;;;5006106;28;20288;-94
2022/06/19 01:25:13;;;;;;;17.83;4.23;;;19.90;54.50;;;;;;5012264;28;20305;-94
2022/06/19 01:30:44;;;;;;;15.67;4.57;;;19.90;53.60;;;;;;5020295;28;20332;-95
2022/06/19 01:33:17;;;;;;;22.50;5.23;;;19.90;54.10;;;;;;5032422;28;20212;-94
2022/06/19 01:35:55;;;;;;;15.57;3.23;;;19.90;54.00;;;;;;5017803;28;20201;-94
2022/06/19 01:38:30;;;;;;;15.43;3.27;;;19.90;54.40;;;;;;5012827;28;20212;-95
2022/06/19 01:41:06;;;;;;;26.23;5.00;;;19.80;54.50;;;;;;5019023;28;20202;-93
2022/06/19 01:43:36;;;;;;;12.40;2.87;;;19.80;54.30;;;;;;5005539;28;20236;-94
2022/06/19 01:46:05;;;;;;;18.20;3.77;;;19.80;54.50;;;;;;5033780;28;20258;-93
2022/06/19 01:48:33;;;;;;;12.10;2.53;;;19.80;54.30;;;;;;4997259;28;20217;-95
2022/06/19 01:51:04;;;;;;;12.33;3.40;;;19.80;54.30;;;;;;4993655;28;20214;-95
2022/06/19 01:53:37;;;;;;;10.83;3.20;;;19.70;54.50;;;;;;5012767;28;20911;-96
2022/06/19 01:56:07;;;;;;;9.97;2.43;;;19.70;54.80;;;;;;5016719;28;20209;-93
2022/06/19 01:58:38;;;;;;;22.40;4.30;;;19.70;54.80;;;;;;5011555;28;20212;-93
2022/06/19 02:01:08;;;;;;;19.73;3.97;;;19.70;54.80;;;;;;4994330;28;20921;-94
2022/06/19 02:03:40;;;;;;;12.77;2.70;;;19.70;54.80;;;;;;5010052;28;20262;-89
2022/06/19 02:06:10;;;;;;;13.33;3.53;;;19.70;54.80;;;;;;5015110;28;20624;-92
2022/06/19 02:08:41;;;;;;;20.73;5.30;;;19.70;54.80;;;;;;5008447;28;20741;-94
2022/06/19 02:11:13;;;;;;;11.93;3.03;;;19.70;54.30;;;;;;5012439;28;20213;-92
2022/06/19 02:13:46;;;;;;;16.17;3.93;;;19.70;54.40;;;;;;5014702;28;20232;-96
2022/06/19 02:16:17;;;;;;;14.77;3.53;;;19.70;54.50;;;;;;5017605;28;20600;-95
2022/06/19 02:18:49;;;;;;;10.43;2.73;;;19.70;54.30;;;;;;5015566;28;20207;-96
2022/06/19 02:21:37;;;;;;;18.87;5.07;;;19.80;54.80;;;;;;5013014;28;20229;-95
2022/06/19 02:24:06;;;;;;;20.97;5.23;;;19.80;56.10;;;;;;5012885;28;20209;-90
2022/06/19 02:26:36;;;;;;;34.17;6.13;;;19.80;57.80;;;;;;5009672;28;20582;-92
2022/06/19 02:29:09;;;;;;;18.27;4.00;;;19.80;58.70;;;;;;5010243;28;20217;-91
2022/06/19 02:31:39;;;;;;;18.03;5.00;;;19.70;58.30;;;;;;5009337;28;20207;-94
2022/06/19 02:34:16;;;;;;;18.23;4.17;;;19.70;58.90;;;;;;5009506;28;20292;-94
2022/06/19 02:36:45;;;;;;;17.37;4.17;;;19.60;59.00;;;;;;5005805;28;20230;-91
2022/06/19 02:39:31;;;;;;;16.27;4.40;;;19.50;58.70;;;;;;5007704;28;20220;-91
2022/06/19 02:42:21;;;;;;;17.43;4.33;;;19.30;59.20;;;;;;5007591;28;20234;-91
2022/06/19 02:44:51;;;;;;;14.73;4.47;;;19.20;59.30;;;;;;5005856;28;20205;-90
2022/06/19 02:47:18;;;;;;;13.30;4.10;;;19.10;59.60;;;;;;5007457;28;20228;-89
2022/06/19 02:49:46;;;;;;;13.23;3.67;;;19.00;60.20;;;;;;5006870;28;20197;-90
2022/06/19 02:52:14;;;;;;;25.77;7.87;;;19.00;60.50;;;;;;5006179;28;20587;-91
2022/06/19 02:54:41;;;;;;;15.07;4.27;;;18.90;60.10;;;;;;4989866;28;20570;-92
2022/06/19 02:57:12;;;;;;;12.90;4.17;;;18.80;60.10;;;;;;5003543;28;20688;-89
2022/06/19 02:59:40;;;;;;;15.97;4.23;;;18.70;60.50;;;;;;5008156;28;20310;-90
2022/06/19 03:02:08;;;;;;;14.17;4.13;;;18.70;60.50;;;;;;5005517;28;20251;-90
2022/06/19 03:04:40;;;;;;;14.67;3.60;;;18.70;60.80;;;;;;5007922;28;20793;-91
2022/06/19 03:07:07;;;;;;;14.97;4.27;;;18.60;61.00;;;;;;5005824;28;20656;-91
2022/06/19 03:09:35;;;;;;;9.53;3.47;;;18.60;61.30;;;;;;5008079;28;20204;-91
2022/06/19 03:12:02;;;;;;;17.83;4.87;;;18.60;61.40;;;;;;5002139;28;20211;-91
2022/06/19 03:14:30;;;;;;;13.90;4.43;;;18.50;61.20;;;;;;4993772;28;20209;-89
2022/06/19 03:16:59;;;;;;;15.77;3.83;;;18.50;61.80;;;;;;4988610;28;20213;-91
2022/06/19 03:19:26;;;;;;;9.90;3.17;;;18.50;62.00;;;;;;4997337;28;20230;-91
2022/06/19 03:21:54;;;;;;;13.63;4.40;;;18.40;62.30;;;;;;5007387;28;20209;-91
2022/06/19 03:24:22;;;;;;;14.80;4.40;;;18.40;62.70;;;;;;5004583;28;20680;-91
2022/06/19 03:26:49;;;;;;;14.13;4.47;;;18.40;63.00;;;;;;5009154;28;20204;-91
2022/06/19 03:29:16;;;;;;;13.47;2.90;;;18.40;63.30;;;;;;5008538;28;20207;-92
2022/06/19 03:31:47;;;;;;;18.83;4.63;;;18.40;63.30;;;;;;5007632;28;20672;-91
2022/06/19 03:34:14;;;;;;;14.90;4.23;;;18.40;64.10;;;;;;5007075;28;20194;-92
2022/06/19 03:36:41;;;;;;;14.97;3.70;;;18.40;63.40;;;;;;5008279;28;20209;-92
2022/06/19 03:39:09;;;;;;;11.73;4.07;;;18.40;63.40;;;;;;5006109;28;20211;-92
2022/06/19 03:41:37;;;;;;;14.43;3.63;;;18.40;63.40;;;;;;5007133;28;20558;-91
2022/06/19 03:44:04;;;;;;;14.37;3.73;;;18.50;64.10;;;;;;5007975;28;20227;-90
2022/06/19 03:46:33;;;;;;;13.30;3.53;;;18.50;64.20;;;;;;4996958;28;20237;-90
2022/06/19 03:49:04;;;;;;;17.00;3.37;;;18.50;64.60;;;;;;5001194;28;20720;-91
2022/06/19 03:51:31;;;;;;;14.33;4.30;;;18.50;64.80;;;;;;5008610;28;20681;-91
2022/06/19 03:53:59;;;;;;;13.97;3.73;;;18.60;64.60;;;;;;5006742;28;20638;-92
2022/06/19 03:56:29;;;;;;;23.20;6.47;;;18.60;64.70;;;;;;5008082;28;20289;-91
2022/06/19 03:58:56;;;;;;;13.67;3.23;;;18.60;64.70;;;;;;5008269;28;20208;-92
2022/06/19 04:01:26;;;;;;;19.23;5.33;;;18.60;64.40;;;;;;5007642;28;20212;-91
2022/06/19 04:03:54;;;;;;;8.07;2.53;;;18.60;64.90;;;;;;5008356;28;20247;-91
2022/06/19 04:06:26;;;;;;;13.50;3.13;;;18.60;65.00;;;;;;5012840;28;20767;-92
2022/06/19 04:08:54;;;;;;;14.37;4.40;;;18.60;65.20;;;;;;4991034;28;20344;-90
2022/06/19 04:11:23;;;;;;;12.80;3.47;;;18.70;65.20;;;;;;5011586;28;20239;-92
2022/06/19 04:13:52;;;;;;;21.03;5.23;;;18.70;65.00;;;;;;5008005;28;20211;-91
2022/06/19 04:16:21;;;;;;;18.43;5.07;;;18.70;65.30;;;;;;5012051;28;20312;-92
2022/06/19 04:18:49;;;;;;;19.33;4.93;;;18.70;65.00;;;;;;5009954;28;20207;-92
2022/06/19 04:21:18;;;;;;;18.97;4.57;;;18.70;65.00;;;;;;5010535;28;20695;-90
2022/06/19 04:23:47;;;;;;;14.30;4.00;;;18.70;65.00;;;;;;5010603;28;20303;-91
2022/06/19 04:26:19;;;;;;;13.30;3.67;;;18.70;65.00;;;;;;5008686;28;20550;-93
2022/06/19 04:28:46;;;;;;;10.60;3.43;;;18.70;65.00;;;;;;5010574;28;20236;-92
2022/06/19 04:31:13;;;;;;;16.77;4.97;;;18.80;65.20;;;;;;5009106;28;20232;-93
2022/06/19 04:33:40;;;;;;;16.50;3.43;;;18.80;65.60;;;;;;5011937;28;20209;-94
2022/06/19 04:36:10;;;;;;;17.13;3.70;;;18.80;66.10;;;;;;5031893;28;20223;-93
2022/06/19 04:38:37;;;;;;;16.63;4.40;;;18.80;66.10;;;;;;5030954;28;20220;-93
2022/06/19 04:41:06;;;;;;;12.27;3.40;;;18.90;66.00;;;;;;5029177;28;20304;-94
2022/06/19 04:43:33;;;;;;;25.90;7.17;;;18.90;65.70;;;;;;5006938;28;20442;-93
2022/06/19 04:46:05;;;;;;;16.57;4.17;;;19.00;65.60;;;;;;5010400;28;20316;-92
2022/06/19 04:48:33;;;;;;;23.67;6.00;;;19.00;66.10;;;;;;5010970;28;20201;-93
2022/06/19 04:51:01;;;;;;;17.27;5.63;;;19.00;66.60;;;;;;5019180;28;20208;-92
2022/06/19 04:53:29;;;;;;;13.37;4.23;;;19.00;66.60;;;;;;5007816;28;20254;-90
2022/06/19 04:55:56;;;;;;;16.60;4.37;;;19.10;66.70;;;;;;5010513;28;20204;-91
2022/06/19 04:58:25;;;;;;;21.20;5.50;;;19.10;66.80;;;;;;5008489;28;20630;-90
2022/06/19 05:00:53;;;;;;;20.23;5.50;;;19.10;67.10;;;;;;5016443;28;20208;-91
2022/06/19 05:03:21;;;;;;;14.67;4.57;;;19.20;67.50;;;;;;5022134;28;20239;-92
2022/06/19 05:05:49;;;;;;;17.73;5.23;;;19.20;67.70;;;;;;5013622;28;20701;-92
2022/06/19 05:08:16;;;;;;;21.63;6.17;;;19.20;67.90;;;;;;5009673;28;20201;-91
2022/06/19 05:10:45;;;;;;;17.17;4.87;;;19.30;68.50;;;;;;5009166;28;20608;-92
2022/06/19 05:13:16;;;;;;;14.40;4.70;;;19.30;68.90;;;;;;5008665;28;20546;-91
2022/06/19 05:15:46;;;;;;;16.60;4.53;;;19.30;69.50;;;;;;5009481;28;20645;-92
2022/06/19 05:18:15;;;;;;;19.50;4.97;;;19.30;69.40;;;;;;5010721;28;20209;-92
2022/06/19 05:20:42;;;;;;;21.23;5.53;;;19.30;69.40;;;;;;5009629;28;20854;-92
2022/06/19 05:23:10;;;;;;;17.40;5.47;;;19.30;69.50;;;;;;5008163;28;20290;-91
2022/06/19 05:25:38;;;;;;;14.27;3.60;;;19.30;69.60;;;;;;5008545;28;20617;-91
2022/06/19 05:28:05;;;;;;;17.43;4.43;;;19.20;69.40;;;;;;5009794;28;20290;-92
2022/06/19 05:30:33;;;;;;;25.80;5.93;;;19.20;69.40;;;;;;5008221;28;20204;-93
2022/06/19 05:33:03;;;;;;;18.90;5.13;;;19.20;69.80;;;;;;5009214;28;20216;-91
2022/06/19 05:35:30;;;;;;;17.77;4.43;;;19.20;70.30;;;;;;5010809;28;20205;-91
2022/06/19 05:37:57;;;;;;;25.10;4.70;;;19.20;69.60;;;;;;5008172;28;20255;-92
2022/06/19 05:40:25;;;;;;;22.13;5.03;;;19.20;69.80;;;;;;5009738;28;20303;-92
2022/06/19 05:42:52;;;;;;;15.93;5.20;;;19.20;70.10;;;;;;5009065;28;20807;-91
2022/06/19 05:45:20;;;;;;;21.77;5.70;;;19.20;70.00;;;;;;5009228;28;20892;-92
2022/06/19 05:47:48;;;;;;;20.73;5.67;;;19.20;70.50;;;;;;5010392;28;20654;-93
2022/06/19 05:50:16;;;;;;;27.00;7.63;;;19.30;70.30;;;;;;5009749;28;20311;-91
2022/06/19 05:52:43;;;;;;;23.17;7.77;;;19.30;70.50;;;;;;5004114;28;20209;-91
2022/06/19 05:55:13;;;;;;;30.97;7.47;;;19.30;70.30;;;;;;4996877;28;20233;-93
2022/06/19 05:57:40;;;;;;;19.40;5.00;;;19.30;70.70;;;;;;4988150;28;20459;-93
2022/06/19 06:00:09;;;;;;;22.83;5.00;;;19.30;70.70;;;;;;5010151;28;20271;-93
2022/06/19 06:02:37;;;;;;;13.30;3.87;;;19.40;71.00;;;;;;5005281;28;20696;-94
2022/06/19 06:05:06;;;;;;;16.40;4.80;;;19.40;70.80;;;;;;5006115;28;20322;-92
2022/06/19 06:07:36;;;;;;;14.70;4.07;;;19.40;71.00;;;;;;5011031;28;20714;-92
2022/06/19 06:10:04;;;;;;;17.80;4.10;;;19.40;71.40;;;;;;5005253;28;20242;-93
2022/06/19 06:12:31;;;;;;;23.07;5.43;;;19.40;71.00;;;;;;5007128;28;20232;-92
2022/06/19 06:15:00;;;;;;;15.73;4.07;;;19.40;71.10;;;;;;5005937;28;20213;-92
2022/06/19 06:17:27;;;;;;;17.53;5.13;;;19.40;71.00;;;;;;5010144;28;20212;-93
2022/06/19 06:19:55;;;;;;;21.90;4.60;;;19.40;70.90;;;;;;5009726;28;20300;-92
2022/06/19 06:22:23;;;;;;;23.87;6.33;;;19.40;71.10;;;;;;5008253;28;20620;-91
2022/06/19 06:24:52;;;;;;;16.43;4.67;;;19.40;71.20;;;;;;4996974;28;20240;-91
2022/06/19 06:27:20;;;;;;;20.60;5.37;;;19.40;71.70;;;;;;4996530;28;20635;-92
2022/06/19 06:29:48;;;;;;;17.73;4.70;;;19.30;71.80;;;;;;5007708;28;20209;-92
2022/06/19 06:32:15;;;;;;;20.13;5.67;;;19.30;71.80;;;;;;5007266;28;20372;-92
2022/06/19 06:34:42;;;;;;;20.70;5.40;;;19.20;71.80;;;;;;5007325;28;20249;-92
2022/06/19 06:37:09;;;;;;;17.93;5.83;;;19.10;72.20;;;;;;5008324;28;20211;-93
2022/06/19 06:39:36;;;;;;;24.70;6.33;;;19.10;72.80;;;;;;5001919;28;20258;-93
2022/06/19 06:42:06;;;;;;;15.57;4.90;;;19.00;72.80;;;;;;5004575;28;20728;-90
2022/06/19 06:44:34;;;;;;;22.40;6.83;;;19.00;73.40;;;;;;5007172;28;20286;-94
2022/06/19 06:47:02;;;;;;;26.10;5.90;;;18.90;73.40;;;;;;5005272;28;20309;-90
2022/06/19 06:49:29;;;;;;;29.70;6.63;;;18.90;73.50;;;;;;5002502;28;20317;-92
2022/06/19 06:51:57;;;;;;;18.87;5.57;;;18.90;73.60;;;;;;5007072;28;20206;-92
2022/06/19 06:54:25;;;;;;;21.90;5.30;;;18.90;74.30;;;;;;5008749;28;20200;-92
2022/06/19 06:56:55;;;;;;;20.70;6.97;;;18.90;74.50;;;;;;5006919;28;20651;-91
2022/06/19 06:59:28;;;;;;;16.43;4.73;;;18.80;75.80;;;;;;5010017;28;20254;-91
2022/06/19 07:01:55;;;;;;;23.47;7.80;;;18.80;75.30;;;;;;5009181;28;20247;-91
2022/06/19 07:04:25;;;;;;;23.50;6.03;;;18.80;74.80;;;;;;5007417;28;20236;-92
2022/06/19 07:06:53;;;;;;;18.27;5.67;;;18.80;75.40;;;;;;5005014;28;20212;-92
2022/06/19 07:09:20;;;;;;;16.83;4.83;;;18.80;75.10;;;;;;4996984;28;20625;-90
2022/06/19 07:11:49;;;;;;;18.50;5.50;;;18.80;75.20;;;;;;5006961;28;20209;-93
2022/06/19 07:14:18;;;;;;;15.03;4.63;;;18.80;75.60;;;;;;5010538;28;20222;-92
2022/06/19 07:16:48;;;;;;;16.07;4.53;;;18.80;75.50;;;;;;5008057;28;20247;-93
2022/06/19 07:19:16;;;;;;;22.00;5.63;;;18.80;75.80;;;;;;5009140;28;20317;-92
2022/06/19 07:21:44;;;;;;;16.13;5.13;;;18.80;75.70;;;;;;5008916;28;20254;-92
2022/06/19 07:24:14;;;;;;;16.43;4.23;;;18.80;75.40;;;;;;4991437;28;20269;-93
2022/06/19 07:26:42;;;;;;;13.33;4.50;;;18.80;75.50;;;;;;4995243;28;20215;-93
2022/06/19 07:29:09;;;;;;;14.40;4.60;;;18.80;75.60;;;;;;5010544;28;20200;-94
2022/06/19 07:31:38;;;;;;;17.87;4.70;;;18.80;75.10;;;;;;4995219;28;20214;-92
2022/06/19 07:34:08;;;;;;;18.77;4.93;;;18.80;75.70;;;;;;5009267;28;20213;-91
2022/06/19 07:36:35;;;;;;;14.20;3.63;;;18.80;75.70;;;;;;5010835;28;20644;-92
2022/06/19 07:39:02;;;;;;;10.80;3.87;;;18.90;75.50;;;;;;5013502;28;20222;-92
2022/06/19 07:41:30;;;;;;;15.37;5.00;;;18.90;75.60;;;;;;5011994;28;20291;-91
2022/06/19 07:43:57;;;;;;;14.07;3.67;;;18.90;75.80;;;;;;5003500;28;20237;-92
2022/06/19 07:46:27;;;;;;;13.00;3.83;;;18.90;75.80;;;;;;5006546;28;20214;-93
2022/06/19 07:51:45;;;;;;;12.53;3.93;;;19.00;76.30;;;;;;4956824;28;20209;-91
2022/06/19 07:54:20;;;;;;;14.30;3.93;;;19.00;76.50;;;;;;4997457;28;20307;-93
2022/06/19 07:56:51;;;;;;;12.23;3.90;;;19.00;76.70;;;;;;5014181;28;20346;-93
2022/06/19 07:59:19;;;;;;;10.53;3.60;;;19.00;76.60;;;;;;5012496;28;20618;-91
2022/06/19 08:01:46;;;;;;;9.40;3.70;;;19.00;76.20;;;;;;5008761;28;20214;-92
2022/06/19 08:04:15;;;;;;;14.80;3.63;;;19.00;75.90;;;;;;5011127;28;20244;-93
2022/06/19 08:06:42;;;;;;;12.93;4.63;;;19.00;76.00;;;;;;5026521;28;20243;-92
2022/06/19 08:09:11;;;;;;;14.40;4.47;;;19.00;76.00;;;;;;5032317;28;20188;-94
2022/06/19 08:11:39;;;;;;;9.33;3.17;;;19.00;76.40;;;;;;5029264;28;20561;-93
2022/06/19 08:14:06;;;;;;;8.37;2.43;;;19.00;76.50;;;;;;5007755;28;20205;-93
2022/06/19 08:16:39;;;;;;;12.73;4.00;;;19.00;76.40;;;;;;5004668;28;20219;-92
2022/06/19 08:19:07;;;;;;;7.67;2.73;;;19.00;77.00;;;;;;5016407;28;20345;-92
2022/06/19 08:21:34;;;;;;;12.57;3.77;;;19.00;76.80;;;;;;5013879;28;20208;-90
2022/06/19 08:24:01;;;;;;;11.27;4.03;;;19.00;76.50;;;;;;4996460;28;20237;-92
2022/06/19 08:26:31;;;;;;;11.30;3.80;;;19.00;76.60;;;;;;5013160;28;20204;-93
2022/06/19 08:29:00;;;;;;;13.67;3.83;;;19.10;77.00;;;;;;5016637;28;20215;-91
2022/06/19 08:31:30;;;;;;;15.70;3.93;;;19.10;76.50;;;;;;5022340;28;20692;-92
2022/06/19 08:33:57;;;;;;;8.93;2.93;;;19.00;76.80;;;;;;5032168;28;20216;-95
2022/06/19 08:36:33;;;;;;;10.97;3.60;;;19.10;76.70;;;;;;5029250;28;20608;-94
2022/06/19 08:39:09;;;;;;;10.33;3.13;;;19.10;77.40;;;;;;5014357;28;20205;-92
2022/06/19 08:42:01;;;;;;;10.77;3.17;;;19.10;77.20;;;;;;5007961;28;20299;-94
2022/06/19 08:45:16;;;;;;;9.40;2.47;;;19.20;77.60;;;;;;4993055;28;20259;-94
2022/06/19 08:47:59;;;;;;;7.83;2.60;;;19.20;78.10;;;;;;4931780;29;20215;-93
2022/06/19 08:50:34;;;;;;;16.13;3.53;;;19.20;77.90;;;;;;4932031;29;20745;-92
2022/06/19 08:53:18;;;;;;;10.90;3.03;;;19.20;78.00;;;;;;4985874;28;20200;-93
2022/06/19 08:55:55;;;;;;;11.43;3.37;;;19.30;78.10;;;;;;5011309;28;20236;-92
2022/06/19 08:58:31;;;;;;;12.73;3.83;;;19.30;78.00;;;;;;5009096;28;20299;-91
2022/06/19 09:01:03;;;;;;;8.27;3.00;;;19.40;78.00;;;;;;5012192;28;20188;-95
2022/06/19 09:06:39;;;;;;;12.27;3.87;;;19.50;78.10;;;;;;5011175;28;20287;-93
2022/06/19 09:09:30;;;;;;;8.00;2.30;;;19.60;78.50;;;;;;4994522;28;20205;-92
2022/06/19 09:12:12;;;;;;;14.97;4.37;;;19.70;78.10;;;;;;5007471;28;20209;-93
2022/06/19 09:14:59;;;;;;;7.80;3.17;;;19.80;77.20;;;;;;4992972;28;20213;-94
2022/06/19 09:17:30;;;;;;;11.33;3.53;;;19.90;77.50;;;;;;4996389;28;20216;-92
2022/06/19 09:20:05;;;;;;;10.17;3.43;;;20.00;77.00;;;;;;5011244;28;20284;-91
2022/06/19 09:22:59;;;;;;;10.53;3.73;;;20.10;77.10;;;;;;4991250;28;20237;-93
2022/06/19 09:25:41;;;;;;;12.10;3.73;;;20.10;77.10;;;;;;5004300;28;20287;-93
2022/06/19 09:28:18;;;;;;;8.67;2.97;;;20.30;76.20;;;;;;5011117;28;20704;-93
2022/06/19 09:30:53;;;;;;;12.93;3.40;;;20.30;75.80;;;;;;5014031;28;20649;-93
2022/06/19 09:33:27;;;;;;;15.30;4.07;;;20.40;76.10;;;;;;5011167;28;20569;-92
2022/06/19 09:36:06;;;;;;;11.70;3.23;;;20.50;76.00;;;;;;5010444;28;20206;-92
2022/06/19 09:38:42;;;;;;;6.60;2.60;;;20.50;74.70;;;;;;5021168;28;20236;-93
2022/06/19 09:41:14;;;;;;;7.80;2.97;;;20.60;74.40;;;;;;5011623;28;20201;-94
2022/06/19 09:43:52;;;;;;;12.30;3.97;;;20.70;74.10;;;;;;5011306;28;20232;-92
2022/06/19 09:46:26;;;;;;;13.63;4.27;;;20.70;73.80;;;;;;5012359;28;20205;-91
2022/06/19 09:49:28;;;;;;;12.30;3.97;;;20.70;73.60;;;;;;5010807;28;20196;-93
2022/06/19 09:51:59;;;;;;;7.33;2.43;;;20.80;73.10;;;;;;5008940;28;20205;-93
2022/06/19 09:54:31;;;;;;;9.10;2.67;;;20.80;72.70;;;;;;4993815;28;20207;-94
2022/06/19 09:57:06;;;;;;;7.50;2.47;;;20.80;72.70;;;;;;5006107;28;20202;-94
2022/06/19 09:59:41;;;;;;;7.90;2.83;;;20.90;72.90;;;;;;4995706;28;20542;-93
2022/06/19 10:02:16;;;;;;;8.27;2.93;;;20.80;72.80;;;;;;5011520;28;20548;-92
2022/06/19 10:04:47;;;;;;;9.37;2.43;;;20.80;72.10;;;;;;5007758;28;20232;-94
2022/06/19 10:07:23;;;;;;;18.43;5.20;;;20.80;72.40;;;;;;5001536;28;20205;-91
2022/06/19 10:09:56;;;;;;;9.03;2.60;;;20.80;72.20;;;;;;5014468;28;20217;-92
2022/06/19 10:12:29;;;;;;;8.43;3.00;;;20.90;71.50;;;;;;5010329;28;20631;-92
2022/06/19 10:15:04;;;;;;;13.73;3.90;;;20.90;71.00;;;;;;4996316;28;20661;-93
2022/06/19 10:17:43;;;;;;;11.60;3.40;;;20.80;70.20;;;;;;5006104;28;20270;-92
2022/06/19 10:20:15;;;;;;;13.33;4.60;;;20.80;70.10;;;;;;5006788;28;20206;-91
2022/06/19 10:23:03;;;;;;;8.23;2.93;;;20.80;70.40;;;;;;5009898;28;20204;-92
2022/06/19 10:26:00;;;;;;;8.97;3.50;;;20.80;70.10;;;;;;5008615;28;20237;-93
2022/06/19 10:28:46;;;;;;;13.27;3.77;;;20.70;69.50;;;;;;5003335;28;20241;-92
2022/06/19 10:31:24;;;;;;;6.97;2.90;;;20.80;69.60;;;;;;5000197;28;20212;-93
2022/06/19 10:34:02;;;;;;;8.87;4.40;;;20.70;70.00;;;;;;5008884;28;20201;-92
2022/06/19 10:36:39;;;;;;;7.97;2.57;;;20.70;70.40;;;;;;5010775;28;20194;-91
2022/06/19 10:39:28;;;;;;;9.47;2.90;;;20.70;70.60;;;;;;4996496;28;20213;-93
2022/06/19 10:42:07;;;;;;;6.97;2.50;;;20.80;70.80;;;;;;4997103;28;20199;-90
2022/06/19 10:45:02;;;;;;;11.87;3.03;;;20.80;71.30;;;;;;5011043;28;20309;-91
2022/06/19 10:47:46;;;;;;;10.73;4.03;;;20.90;70.80;;;;;;5013864;28;20203;-92
2022/06/19 10:50:24;;;;;;;13.07;4.47;;;21.10;70.80;;;;;;5009727;28;20220;-91
2022/06/19 10:53:06;;;;;;;10.33;3.40;;;21.20;69.90;;;;;;5011030;28;20212;-90
2022/06/19 10:55:39;;;;;;;8.57;2.67;;;21.20;68.90;;;;;;5010680;28;20214;-89
2022/06/19 10:58:17;;;;;;;10.50;3.47;;;21.30;68.90;;;;;;5009408;28;20275;-90
2022/06/19 11:00:46;;;;;;;15.17;3.60;;;21.40;68.50;;;;;;5008446;28;20263;-89
2022/06/19 11:06:12;;;;;;;8.57;2.73;;;21.50;68.10;;;;;;5009660;28;20241;-88
2022/06/19 11:08:43;;;;;;;11.37;3.20;;;21.50;67.40;;;;;;5008881;28;20677;-90
2022/06/19 11:11:14;;;;;;;11.70;3.30;;;21.50;67.40;;;;;;5002810;28;20203;-91
2022/06/19 11:14:03;;;;;;;14.57;4.33;;;21.50;67.40;;;;;;4989471;28;20211;-90
2022/06/19 11:16:34;;;;;;;11.43;3.53;;;21.50;66.00;;;;;;5002648;28;20732;-90
2022/06/19 11:19:01;;;;;;;11.97;3.77;;;21.50;66.90;;;;;;5008908;28;20202;-90
2022/06/19 11:21:35;;;;;;;7.97;3.00;;;21.50;66.30;;;;;;5011505;28;20241;-90
2022/06/19 11:24:04;;;;;;;10.67;2.83;;;21.40;66.30;;;;;;5011215;28;20211;-92
2022/06/19 11:26:38;;;;;;;9.60;3.40;;;21.40;66.60;;;;;;5011189;28;20229;-90
2022/06/19 11:29:18;;;;;;;8.60;3.00;;;21.30;66.10;;;;;;5008821;28;20264;-90
2022/06/19 11:32:05;;;;;;;10.70;3.30;;;21.30;66.10;;;;;;5009696;28;20685;-92
2022/06/19 11:34:44;;;;;;;11.87;3.83;;;21.20;66.00;;;;;;5009611;28;20843;-89
2022/06/19 11:37:17;;;;;;;10.20;3.97;;;21.20;66.10;;;;;;5010960;28;20235;-90
2022/06/19 11:39:47;;;;;;;10.73;3.33;;;21.20;66.10;;;;;;5012273;28;20255;-92
2022/06/19 11:42:30;;;;;;;15.33;3.83;;;21.10;65.80;;;;;;5012305;28;20275;-90
2022/06/19 11:45:00;;;;;;;11.57;3.53;;;21.10;65.50;;;;;;5018684;28;20241;-90
2022/06/19 11:47:37;;;;;;;10.40;3.53;;;21.10;66.10;;;;;;5017140;28;20209;-91
2022/06/19 11:50:13;;;;;;;9.87;3.60;;;21.00;65.60;;;;;;5010651;28;20236;-90
2022/06/19 11:52:48;;;;;;;6.23;2.30;;;21.00;66.80;;;;;;5012699;28;20263;-90
2022/06/19 11:55:22;;;;;;;12.73;3.43;;;20.90;66.70;;;;;;5012844;28;20278;-92
2022/06/19 11:57:52;;;;;;;11.03;3.53;;;20.90;67.00;;;;;;5011371;28;20670;-90
2022/06/19 12:00:35;;;;;;;12.77;3.37;;;20.80;67.40;;;;;;5010841;28;20205;-90
2022/06/19 12:03:05;;;;;;;9.37;2.73;;;20.80;67.80;;;;;;5011642;28;20205;-89
2022/06/19 12:05:42;;;;;;;11.63;3.73;;;20.80;68.10;;;;;;5005977;28;20229;-89
2022/06/19 12:08:19;;;;;;;5.27;2.23;;;20.80;68.20;;;;;;5014014;28;20201;-90
2022/06/19 12:10:53;;;;;;;22.60;4.47;;;20.70;68.30;;;;;;5015209;28;20236;-91
2022/06/19 12:13:24;;;;;;;16.13;3.43;;;20.70;68.40;;;;;;5015915;28;20229;-90
2022/06/19 12:16:03;;;;;;;13.07;3.60;;;20.70;68.60;;;;;;5017750;28;20755;-91
2022/06/19 12:18:34;;;;;;;8.20;2.77;;;20.60;68.30;;;;;;5011340;28;20233;-90
2022/06/19 12:21:05;;;;;;;8.53;2.63;;;20.60;69.00;;;;;;5012562;28;20219;-89
2022/06/19 12:23:41;;;;;;;9.43;2.87;;;20.60;69.20;;;;;;5014238;28;20205;-90
2022/06/19 12:26:15;;;;;;;6.83;2.60;;;20.50;69.40;;;;;;5010539;28;20720;-90
2022/06/19 12:28:50;;;;;;;13.83;4.00;;;20.50;69.20;;;;;;4996431;28;20202;-92
2022/06/19 12:31:23;;;;;;;8.97;3.20;;;20.50;68.70;;;;;;4998077;28;20220;-90
2022/06/19 12:33:56;;;;;;;9.63;3.13;;;20.50;68.50;;;;;;5006061;28;20785;-90
2022/06/19 12:36:30;;;;;;;9.80;3.53;;;20.40;68.90;;;;;;5015088;28;20243;-90
2022/06/19 12:39:03;;;;;;;5.07;1.63;;;20.40;69.00;;;;;;5015099;28;20279;-92
2022/06/19 12:41:42;;;;;;;12.67;3.90;;;20.40;69.00;;;;;;5014262;28;20226;-91
2022/06/19 12:44:25;;;;;;;6.73;2.53;;;20.40;69.60;;;;;;5014253;28;20258;-92
2022/06/19 12:47:04;;;;;;;10.47;3.23;;;20.40;69.80;;;;;;5013711;28;20237;-90
2022/06/19 12:49:53;;;;;;;13.43;4.10;;;20.30;69.10;;;;;;5014607;28;20220;-91
2022/06/19 12:52:32;;;;;;;10.37;2.97;;;20.30;69.40;;;;;;5015146;28;20220;-93
2022/06/19 12:55:21;;;;;;;11.70;3.90;;;20.30;69.70;;;;;;5015112;28;20217;-91
2022/06/19 12:58:34;;;;;;;16.77;5.50;;;20.20;69.60;;;;;;5012201;28;20264;-92
2022/06/19 13:01:09;;;;;;;15.97;5.17;;;20.20;70.20;;;;;;5009369;28;20676;-91
2022/06/19 13:03:45;;;;;;;19.97;5.00;;;20.20;70.20;;;;;;5009195;28;20357;-92
2022/06/19 13:06:28;;;;;;;16.03;4.20;;;20.10;70.70;;;;;;5009688;28;20272;-91
2022/06/19 13:09:15;;;;;;;12.97;3.73;;;20.10;71.20;;;;;;5010943;28;20765;-92
2022/06/19 13:11:55;;;;;;;12.63;4.67;;;20.10;71.70;;;;;;5011974;28;20236;-92
2022/06/19 13:14:51;;;;;;;13.97;4.43;;;20.00;72.20;;;;;;5011396;28;20236;-89
2022/06/19 13:17:27;;;;;;;14.10;3.50;;;20.00;72.00;;;;;;5011805;28;20210;-92